Time;durP1;ratioP1;P1;durP2;ratioP2;P2;SDS_P1;SDS_P2;PMS_P1;PMS_P2;Temp;Humidity;BMP_temperature;BMP_pressure;BME280_temperature;BME280_humidity;BME280_pressure;Samples;Min_cycle;Max_cycle;Signal;HPM_P1;HPM_P2
2022/04/25 00:01:01;;;;;;;29.70;17.83;;;10.40;99.90;;;;;;5086274;28;20415;-50
2022/04/25 00:03:27;;;;;;;31.60;19.17;;;10.40;99.90;;;;;;5083218;28;20399;-51
2022/04/25 00:05:53;;;;;;;32.53;19.50;;;10.40;99.90;;;;;;5089662;28;20417;-51
2022/04/25 00:08:19;;;;;;;33.53;20.00;;;10.40;99.90;;;;;;5083589;28;20400;-51
2022/04/25 00:10:45;;;;;;;32.30;19.40;;;10.40;99.90;;;;;;5090463;28;20411;-51
2022/04/25 00:13:13;;;;;;;35.83;21.63;;;10.50;99.90;;;;;;5090675;28;20431;-53
2022/04/25 00:15:40;;;;;;;36.70;21.33;;;10.40;99.90;;;;;;5083117;28;20512;-50
2022/04/25 00:18:07;;;;;;;35.10;21.07;;;10.40;99.90;;;;;;5085791;28;20483;-50
2022/04/25 00:20:35;;;;;;;36.88;22.52;;;10.40;99.90;;;;;;5079300;28;20420;-50
2022/04/25 00:23:04;;;;;;;35.97;21.85;;;10.40;99.90;;;;;;5063120;28;20418;-51
2022/04/25 00:25:31;;;;;;;38.20;23.27;;;10.40;99.90;;;;;;5041325;28;21025;-50
2022/04/25 00:27:57;;;;;;;38.90;22.30;;;10.30;99.90;;;;;;5059879;28;20405;-51
2022/04/25 00:30:24;;;;;;;38.10;22.50;;;10.30;99.90;;;;;;5062764;28;20444;-50
2022/04/25 00:32:50;;;;;;;40.55;24.10;;;10.40;99.90;;;;;;5066141;28;20465;-50
2022/04/25 00:35:16;;;;;;;41.83;25.70;;;10.20;99.90;;;;;;5060555;28;20412;-51
2022/04/25 00:37:42;;;;;;;40.17;25.40;;;10.20;99.90;;;;;;5060369;28;20403;-50
2022/04/25 00:40:08;;;;;;;46.85;26.38;;;10.30;99.90;;;;;;5061134;28;20444;-51
2022/04/25 00:42:35;;;;;;;42.38;26.40;;;10.20;99.90;;;;;;5059098;28;20427;-51
2022/04/25 00:45:01;;;;;;;44.10;26.13;;;10.10;99.90;;;;;;5060704;28;20368;-50
2022/04/25 00:47:27;;;;;;;43.15;25.15;;;10.00;99.90;;;;;;5056985;28;20430;-51
2022/04/25 00:49:53;;;;;;;44.88;26.95;;;10.00;99.90;;;;;;5069670;28;20526;-51
2022/04/25 00:52:19;;;;;;;44.28;25.60;;;9.90;99.90;;;;;;5069226;28;20483;-51
2022/04/25 00:54:44;;;;;;;46.37;26.20;;;9.80;99.90;;;;;;5070026;28;20801;-50
2022/04/25 00:57:11;;;;;;;41.88;25.88;;;9.60;99.90;;;;;;5070779;28;20380;-53
2022/04/25 00:59:37;;;;;;;44.17;25.83;;;9.60;99.90;;;;;;5069677;28;20458;-50
2022/04/25 01:02:04;;;;;;;45.08;27.38;;;9.70;99.90;;;;;;5070068;28;20431;-51
2022/04/25 01:04:30;;;;;;;44.10;26.47;;;9.80;99.90;;;;;;5068977;28;20486;-52
2022/04/25 01:06:56;;;;;;;41.77;25.37;;;9.80;99.90;;;;;;5069807;28;20419;-50
2022/04/25 01:09:24;;;;;;;42.38;25.10;;;9.90;99.90;;;;;;5069146;28;20469;-50
2022/04/25 01:11:50;;;;;;;45.83;25.77;;;10.00;99.90;;;;;;5069369;28;20392;-51
2022/04/25 01:14:18;;;;;;;43.70;24.67;;;10.00;99.90;;;;;;5069602;28;20735;-50
2022/04/25 01:16:45;;;;;;;42.65;25.02;;;10.00;99.90;;;;;;5069941;28;20376;-51
2022/04/25 01:19:11;;;;;;;43.00;26.08;;;10.00;99.90;;;;;;5067979;28;20419;-53
2022/04/25 01:21:50;;;;;;;45.92;25.90;;;10.00;99.90;;;;;;5074394;28;20421;-50
2022/04/25 01:27:15;;;;;;;42.70;24.90;;;9.80;99.90;;;;;;5089305;28;20409;-50
2022/04/25 01:29:45;;;;;;;45.75;27.65;;;9.60;99.90;;;;;;5090175;28;20390;-51
2022/04/25 01:32:11;;;;;;;44.65;27.02;;;9.70;99.90;;;;;;5089110;28;20397;-52
2022/04/25 01:34:38;;;;;;;45.67;28.08;;;9.70;99.90;;;;;;5089570;28;20724;-51
2022/04/25 01:37:10;;;;;;;45.80;25.00;;;9.70;99.90;;;;;;5089473;28;20401;-51
2022/04/25 01:39:41;;;;;;;44.13;26.85;;;9.60;99.90;;;;;;5089683;28;20464;-51
2022/04/25 01:42:07;;;;;;;43.22;26.02;;;9.60;99.90;;;;;;5089228;28;20474;-50
2022/04/25 01:44:34;;;;;;;42.08;25.63;;;9.60;99.90;;;;;;5087759;28;20378;-50
2022/04/25 01:47:00;;;;;;;43.67;25.42;;;9.60;99.90;;;;;;5088110;28;20503;-51
2022/04/25 01:49:26;;;;;;;43.43;26.57;;;9.70;99.90;;;;;;5068940;28;20924;-50
2022/04/25 01:51:52;;;;;;;41.63;25.50;;;9.60;99.90;;;;;;5088602;28;20398;-50
2022/04/25 01:54:26;;;;;;;44.35;26.45;;;9.60;99.90;;;;;;5088487;28;20751;-50
2022/04/25 01:56:55;;;;;;;43.25;26.63;;;9.60;99.90;;;;;;5089552;28;20398;-50
2022/04/25 01:59:22;;;;;;;46.88;26.08;;;9.60;99.90;;;;;;5088138;28;20496;-51
2022/04/25 02:01:48;;;;;;;41.50;23.67;;;9.60;99.90;;;;;;5089639;28;20389;-50
2022/04/25 02:04:14;;;;;;;43.15;24.88;;;9.60;99.90;;;;;;5088804;28;20370;-51
2022/04/25 02:06:39;;;;;;;41.27;25.23;;;9.70;99.90;;;;;;5089696;28;20753;-50
2022/04/25 02:09:05;;;;;;;44.20;24.58;;;9.70;99.90;;;;;;5089294;28;20944;-50
2022/04/25 02:11:31;;;;;;;41.53;24.53;;;9.70;99.90;;;;;;5070618;28;20390;-50
2022/04/25 02:13:57;;;;;;;41.80;24.33;;;9.70;99.90;;;;;;5089301;28;20905;-50
2022/04/25 02:16:24;;;;;;;40.40;24.58;;;9.70;99.90;;;;;;5088450;28;20386;-51
2022/04/25 02:18:51;;;;;;;45.00;26.58;;;9.80;99.90;;;;;;5089160;28;20485;-50
2022/04/25 02:21:18;;;;;;;45.08;24.73;;;9.90;99.90;;;;;;5088484;28;20419;-51
2022/04/25 02:23:44;;;;;;;41.45;24.50;;;9.90;99.90;;;;;;5088910;28;20416;-50
2022/04/25 02:26:10;;;;;;;44.78;24.80;;;10.00;99.90;;;;;;5088941;28;20374;-52
2022/04/25 02:28:37;;;;;;;42.78;24.25;;;9.90;99.90;;;;;;5088572;28;20889;-51
2022/04/25 02:31:04;;;;;;;41.40;24.57;;;10.00;99.90;;;;;;5088829;28;20388;-51
2022/04/25 02:33:32;;;;;;;47.97;26.40;;;10.00;99.90;;;;;;5075963;28;21209;-50
2022/04/25 02:35:59;;;;;;;41.80;24.58;;;10.00;99.90;;;;;;5080920;28;20391;-50
2022/04/25 02:38:25;;;;;;;45.70;26.58;;;10.00;99.90;;;;;;5088685;28;20414;-50
2022/04/25 02:41:04;;;;;;;40.60;24.43;;;10.00;99.90;;;;;;5093146;28;20406;-50
2022/04/25 02:43:41;;;;;;;43.80;24.83;;;10.10;99.90;;;;;;5091896;28;20393;-51
2022/04/25 02:46:12;;;;;;;43.17;24.40;;;10.10;99.90;;;;;;5083037;28;20489;-51
2022/04/25 02:48:39;;;;;;;42.00;26.10;;;10.10;99.90;;;;;;5092456;28;20394;-50
2022/04/25 02:51:05;;;;;;;42.03;24.75;;;10.10;99.90;;;;;;5092641;28;20386;-51
2022/04/25 02:53:32;;;;;;;44.60;25.90;;;10.10;99.90;;;;;;5091525;28;20398;-51
2022/04/25 02:55:58;;;;;;;43.67;25.37;;;10.10;99.90;;;;;;5092440;28;20454;-50
2022/04/25 02:58:24;;;;;;;44.58;25.65;;;9.90;99.90;;;;;;5091629;28;20495;-50
2022/04/25 03:00:51;;;;;;;45.27;25.23;;;9.80;99.90;;;;;;5092482;28;20485;-50
2022/04/25 03:03:19;;;;;;;44.95;25.98;;;9.70;99.90;;;;;;5091546;28;20386;-50
2022/04/25 03:05:46;;;;;;;44.47;26.70;;;9.70;99.90;;;;;;5092366;28;20511;-50
2022/04/25 03:08:13;;;;;;;47.47;26.30;;;9.70;99.90;;;;;;5073270;28;20455;-52
2022/04/25 03:10:41;;;;;;;44.22;26.23;;;9.60;99.90;;;;;;5092224;28;20475;-50
2022/04/25 03:13:07;;;;;;;46.58;26.83;;;9.70;99.90;;;;;;5092466;28;20393;-50
2022/04/25 03:15:37;;;;;;;45.00;26.83;;;9.70;99.90;;;;;;5091088;28;20397;-50
2022/04/25 03:18:03;;;;;;;43.40;25.48;;;9.80;99.90;;;;;;5091816;28;20412;-50
2022/04/25 03:20:28;;;;;;;44.10;26.23;;;9.80;99.90;;;;;;5090376;28;20410;-51
2022/04/25 03:22:55;;;;;;;41.50;24.73;;;9.80;99.90;;;;;;5091978;28;20412;-50
2022/04/25 03:25:21;;;;;;;42.78;26.55;;;9.90;99.90;;;;;;5073005;28;20398;-52
2022/04/25 03:27:47;;;;;;;45.00;26.33;;;9.90;99.90;;;;;;5091877;28;20974;-51
2022/04/25 03:30:12;;;;;;;44.63;27.05;;;9.80;99.90;;;;;;5090698;28;20739;-52
2022/04/25 03:32:46;;;;;;;46.90;27.50;;;9.80;99.90;;;;;;5086017;28;20459;-52
2022/04/25 03:35:17;;;;;;;45.85;26.10;;;9.70;99.90;;;;;;5085866;28;20436;-53
2022/04/25 03:37:45;;;;;;;43.80;27.65;;;9.60;99.90;;;;;;5080023;28;20775;-50
2022/04/25 03:40:11;;;;;;;47.67;27.83;;;9.50;99.90;;;;;;5064333;28;20390;-50
2022/04/25 03:42:38;;;;;;;48.85;27.25;;;9.50;99.90;;;;;;5079451;28;20406;-51
2022/04/25 03:45:05;;;;;;;48.40;27.85;;;9.40;99.90;;;;;;5082160;28;20386;-50
2022/04/25 03:47:34;;;;;;;50.20;27.80;;;9.40;99.90;;;;;;5084097;28;20402;-50
2022/04/25 03:50:00;;;;;;;54.27;28.90;;;9.40;99.90;;;;;;5082271;28;20800;-51
2022/04/25 03:52:26;;;;;;;52.63;28.48;;;9.40;99.90;;;;;;5081137;28;20987;-50
2022/04/25 03:57:36;;;;;;;52.92;29.33;;;9.50;99.90;;;;;;5085179;28;20408;-50
2022/04/25 04:00:03;;;;;;;52.05;29.45;;;9.40;99.90;;;;;;5083682;28;20400;-50
2022/04/25 04:02:29;;;;;;;52.90;28.58;;;9.40;99.90;;;;;;5081757;28;20407;-51
2022/04/25 04:04:56;;;;;;;50.30;28.90;;;9.40;99.90;;;;;;5080722;28;20894;-50
2022/04/25 04:07:21;;;;;;;53.88;29.60;;;9.40;99.90;;;;;;5079964;28;20380;-51
2022/04/25 04:09:47;;;;;;;49.27;28.53;;;9.50;99.90;;;;;;5081110;28;20392;-51
2022/04/25 04:12:18;;;;;;;46.25;27.55;;;9.50;99.90;;;;;;5082287;28;20469;-52
2022/04/25 04:14:45;;;;;;;48.17;27.73;;;9.60;99.90;;;;;;5081648;28;20396;-51
2022/04/25 04:17:11;;;;;;;48.65;28.42;;;9.60;99.90;;;;;;5064146;28;20391;-51
2022/04/25 04:19:39;;;;;;;45.97;26.25;;;9.60;99.90;;;;;;5081234;28;20433;-51
2022/04/25 04:22:05;;;;;;;46.05;27.05;;;9.70;99.90;;;;;;5084159;28;20500;-51
2022/04/25 04:24:32;;;;;;;46.78;25.83;;;9.70;99.90;;;;;;5085042;28;21072;-50
2022/04/25 04:27:01;;;;;;;43.00;25.67;;;9.70;99.90;;;;;;5081696;28;20392;-50
2022/04/25 04:29:33;;;;;;;42.05;25.30;;;9.90;99.90;;;;;;5081019;28;20480;-50
2022/04/25 04:32:01;;;;;;;43.83;26.02;;;9.90;99.90;;;;;;5077258;28;20431;-51
2022/04/25 04:34:27;;;;;;;44.72;26.65;;;9.90;99.90;;;;;;5067417;28;20488;-50
2022/04/25 04:36:53;;;;;;;47.03;27.52;;;10.00;99.90;;;;;;5070851;28;20402;-51
2022/04/25 04:39:20;;;;;;;42.63;24.90;;;10.00;99.90;;;;;;5075498;28;20412;-51
2022/04/25 04:41:45;;;;;;;48.38;26.77;;;10.00;99.90;;;;;;5070132;28;20770;-50
2022/04/25 04:44:12;;;;;;;43.70;26.53;;;10.00;99.90;;;;;;5086164;28;20873;-51
2022/04/25 04:46:37;;;;;;;41.97;25.85;;;10.00;99.90;;;;;;5082036;28;20398;-50
2022/04/25 04:49:03;;;;;;;46.65;27.52;;;10.00;99.90;;;;;;5069347;28;20400;-50
2022/04/25 04:51:29;;;;;;;48.45;27.02;;;10.00;99.90;;;;;;5080982;28;20406;-50
2022/04/25 04:53:59;;;;;;;47.93;26.67;;;10.10;99.90;;;;;;5080599;28;20521;-51
2022/04/25 04:56:31;;;;;;;46.17;27.83;;;10.10;99.90;;;;;;5067013;28;20393;-51
2022/04/25 04:58:58;;;;;;;49.43;27.63;;;9.90;99.90;;;;;;5088680;28;20467;-50
2022/04/25 05:01:24;;;;;;;47.75;27.85;;;9.90;99.90;;;;;;5070354;28;20394;-50
2022/04/25 05:03:50;;;;;;;50.33;28.50;;;10.00;99.90;;;;;;5089779;28;20462;-50
2022/04/25 05:06:16;;;;;;;48.25;27.83;;;10.20;99.90;;;;;;5089088;28;20504;-53
2022/04/25 05:08:42;;;;;;;46.30;28.40;;;10.30;99.90;;;;;;5089844;28;20394;-51
2022/04/25 05:11:09;;;;;;;46.70;27.43;;;10.40;99.90;;;;;;5089538;28;20444;-50
2022/04/25 05:13:36;;;;;;;44.50;26.38;;;10.50;99.90;;;;;;5086838;28;20393;-51
2022/04/25 05:16:03;;;;;;;45.10;26.33;;;10.40;99.90;;;;;;5089664;28;20394;-50
2022/04/25 05:18:32;;;;;;;43.30;26.17;;;10.50;99.90;;;;;;5089227;28;20452;-51
2022/04/25 05:20:58;;;;;;;42.47;26.63;;;10.60;99.90;;;;;;5082092;28;20483;-50
2022/04/25 05:23:24;;;;;;;44.33;26.73;;;10.60;99.90;;;;;;5065614;28;20504;-50
2022/04/25 05:25:50;;;;;;;46.00;27.25;;;10.50;99.90;;;;;;5089683;28;20997;-50
2022/04/25 05:28:16;;;;;;;47.45;28.10;;;10.70;99.90;;;;;;5087428;28;20553;-52
2022/04/25 05:30:43;;;;;;;45.45;26.75;;;10.80;99.90;;;;;;5087500;28;20806;-51
2022/04/25 05:33:09;;;;;;;41.72;25.17;;;10.90;99.90;;;;;;5087194;28;20410;-51
2022/04/25 05:35:35;;;;;;;42.58;27.05;;;10.90;99.90;;;;;;5087970;28;20385;-48
2022/04/25 05:38:02;;;;;;;46.07;27.70;;;11.00;99.90;;;;;;5071156;28;20779;-48
2022/04/25 05:40:28;;;;;;;40.80;26.30;;;11.10;99.90;;;;;;5088464;28;20388;-48
2022/04/25 05:42:56;;;;;;;40.47;25.73;;;11.20;99.90;;;;;;5082473;28;20392;-49
2022/04/25 05:45:24;;;;;;;38.17;24.85;;;11.40;99.90;;;;;;5079275;28;20928;-49
2022/04/25 05:47:54;;;;;;;39.00;25.20;;;11.50;99.90;;;;;;5068978;28;20379;-48
2022/04/25 05:53:04;;;;;;;36.80;23.83;;;11.90;99.90;;;;;;5068908;28;20934;-48
2022/04/25 05:55:30;;;;;;;41.40;24.55;;;12.00;99.90;;;;;;5067935;28;20463;-48
2022/04/25 05:57:58;;;;;;;36.28;23.52;;;12.00;99.90;;;;;;5067964;28;20419;-49
2022/04/25 06:00:24;;;;;;;36.22;22.60;;;11.90;99.90;;;;;;5068304;28;20386;-49
2022/04/25 06:02:50;;;;;;;39.58;23.98;;;12.00;99.90;;;;;;5069406;28;20411;-49
2022/04/25 06:05:16;;;;;;;36.28;23.08;;;12.10;99.90;;;;;;5079745;28;20432;-51
2022/04/25 06:07:43;;;;;;;32.20;20.70;;;12.40;99.90;;;;;;5081874;28;20431;-49
2022/04/25 06:10:11;;;;;;;31.83;21.00;;;13.00;99.90;;;;;;5082537;28;20389;-49
2022/04/25 06:12:41;;;;;;;33.55;21.88;;;13.70;99.90;;;;;;5092483;28;20373;-49
2022/04/25 06:15:08;;;;;;;32.40;20.80;;;14.00;99.90;;;;;;5077249;28;20383;-49
2022/04/25 06:17:35;;;;;;;32.95;21.55;;;14.10;99.90;;;;;;5072447;28;21031;-49
2022/04/25 06:20:01;;;;;;;33.20;21.10;;;14.10;99.90;;;;;;5072849;28;20399;-49
2022/04/25 06:22:26;;;;;;;30.37;20.80;;;14.00;99.90;;;;;;5073333;28;20411;-49
2022/04/25 06:24:52;;;;;;;31.17;20.48;;;14.10;99.90;;;;;;5053870;28;20405;-49
2022/04/25 06:27:18;;;;;;;31.90;20.07;;;14.20;99.90;;;;;;5058531;28;20379;-51
2022/04/25 06:29:46;;;;;;;33.38;21.90;;;14.20;99.90;;;;;;5072394;28;20387;-49
2022/04/25 06:32:13;;;;;;;30.92;20.75;;;14.30;99.90;;;;;;5066059;28;20403;-49
2022/04/25 06:34:42;;;;;;;31.08;21.50;;;14.90;99.90;;;;;;5051814;28;20401;-48
2022/04/25 06:37:08;;;;;;;31.38;21.00;;;14.70;99.90;;;;;;5052684;28;20543;-49
2022/04/25 06:39:34;;;;;;;31.35;20.70;;;14.90;99.90;;;;;;5057932;28;20962;-49
2022/04/25 06:42:00;;;;;;;30.87;20.93;;;15.20;99.90;;;;;;5072622;28;20376;-49
2022/04/25 06:44:27;;;;;;;26.90;19.95;;;15.40;99.90;;;;;;5072047;28;20426;-49
2022/04/25 06:46:53;;;;;;;26.30;18.60;;;16.00;99.90;;;;;;5074242;28;20379;-49
2022/04/25 06:49:23;;;;;;;28.05;20.15;;;16.70;99.90;;;;;;5071616;28;20387;-51
2022/04/25 06:51:53;;;;;;;27.55;19.60;;;17.30;99.90;;;;;;5072672;28;20384;-49
2022/04/25 06:54:20;;;;;;;27.17;20.67;;;17.10;99.90;;;;;;5071810;28;20376;-49
2022/04/25 06:56:46;;;;;;;27.25;20.25;;;17.00;99.90;;;;;;5072464;28;20379;-49
2022/04/25 06:59:12;;;;;;;27.52;19.65;;;17.10;99.90;;;;;;5072821;28;20407;-49
2022/04/25 07:01:39;;;;;;;27.95;19.63;;;17.10;99.90;;;;;;5071601;28;20515;-49
2022/04/25 07:04:06;;;;;;;27.50;19.92;;;16.50;99.90;;;;;;5072787;28;20391;-49
2022/04/25 07:06:33;;;;;;;25.92;19.33;;;16.50;99.90;;;;;;5072433;28;20410;-49
2022/04/25 07:08:58;;;;;;;27.55;20.25;;;16.70;99.90;;;;;;5072383;28;20920;-49
2022/04/25 07:11:24;;;;;;;28.90;20.40;;;17.10;99.90;;;;;;5071329;28;20474;-49
2022/04/25 07:13:50;;;;;;;26.55;19.88;;;17.00;99.90;;;;;;5054301;28;20391;-50
2022/04/25 07:16:16;;;;;;;25.52;19.88;;;17.20;99.90;;;;;;5070436;28;20441;-52
2022/04/25 07:18:42;;;;;;;26.27;21.38;;;18.00;99.90;;;;;;5071829;28;20873;-49
2022/04/25 07:28:48;;;;;;;26.43;22.07;;;18.90;99.90;;;;;;5054870;28;20412;-49
2022/04/25 07:29:24;;;;;;;26.90;21.08;;;17.90;99.90;;;;;;5091657;28;20427;-49
2022/04/25 07:31:53;;;;;;;32.63;22.10;;;17.40;99.90;;;;;;5091675;28;20393;-49
2022/04/25 07:34:21;;;;;;;29.30;21.15;;;16.20;99.90;;;;;;5090937;28;20378;-51
2022/04/25 07:36:54;;;;;;;29.27;20.45;;;15.50;99.90;;;;;;5091512;28;20374;-49
2022/04/25 07:39:23;;;;;;;30.25;20.23;;;15.50;99.90;;;;;;5091608;28;20457;-49
2022/04/25 07:41:50;;;;;;;27.95;19.73;;;15.60;99.90;;;;;;5091731;28;20374;-49
2022/04/25 07:44:16;;;;;;;26.03;18.33;;;15.80;99.90;;;;;;5074434;28;20893;-51
2022/04/25 07:46:42;;;;;;;25.55;18.20;;;16.30;99.90;;;;;;5090967;28;20468;-49
2022/04/25 07:49:11;;;;;;;25.73;17.90;;;16.60;99.90;;;;;;5091569;28;20392;-49
2022/04/25 07:51:40;;;;;;;25.33;17.98;;;16.70;99.90;;;;;;5090410;28;20422;-49
2022/04/25 07:54:06;;;;;;;25.30;18.63;;;16.70;99.90;;;;;;5091797;28;20384;-49
2022/04/25 07:56:33;;;;;;;25.73;19.15;;;16.60;99.90;;;;;;5090726;28;20390;-49
2022/04/25 07:59:02;;;;;;;25.83;18.30;;;16.40;99.90;;;;;;5091384;28;20410;-49
2022/04/25 08:01:29;;;;;;;26.77;19.73;;;16.30;99.90;;;;;;5090550;28;20491;-50
2022/04/25 08:03:55;;;;;;;25.83;19.05;;;16.30;99.90;;;;;;5091641;28;20406;-50
2022/04/25 08:06:21;;;;;;;26.23;18.48;;;16.20;99.90;;;;;;5090532;28;20428;-51
2022/04/25 08:08:54;;;;;;;24.45;18.23;;;16.40;99.90;;;;;;5091181;28;20386;-50
2022/04/25 08:11:21;;;;;;;26.00;19.10;;;16.50;99.90;;;;;;5091107;28;20915;-50
2022/04/25 08:17:59;;;;;;;25.77;18.58;;;16.90;99.90;;;;;;5070213;28;20415;-50
2022/04/25 08:19:39;;;;;;;25.65;18.67;;;17.30;99.90;;;;;;5069670;28;20428;-49
2022/04/25 08:22:07;;;;;;;22.58;18.00;;;18.00;99.90;;;;;;5070610;28;20406;-49
2022/04/25 08:24:36;;;;;;;23.70;18.15;;;19.60;99.90;;;;;;5069701;28;20376;-49
2022/04/25 08:27:03;;;;;;;23.40;18.70;;;20.90;99.80;;;;;;5070874;28;20844;-49
2022/04/25 08:29:29;;;;;;;22.35;17.25;;;21.30;97.30;;;;;;5070107;28;20900;-49
2022/04/25 08:31:55;;;;;;;26.30;20.08;;;21.10;97.40;;;;;;5070711;28;20476;-49
2022/04/25 08:34:20;;;;;;;23.83;19.35;;;21.70;95.70;;;;;;5069777;28;20864;-51
2022/04/25 08:36:46;;;;;;;24.73;18.70;;;22.30;94.50;;;;;;5070626;28;20374;-50
2022/04/25 08:39:12;;;;;;;25.50;19.53;;;22.20;93.60;;;;;;5070104;28;20412;-49
2022/04/25 08:41:45;;;;;;;25.63;19.90;;;21.40;94.50;;;;;;5070134;28;20383;-49
2022/04/25 08:44:15;;;;;;;28.63;21.33;;;20.30;95.80;;;;;;5070311;28;20845;-49
2022/04/25 08:46:43;;;;;;;26.70;22.15;;;19.50;97.80;;;;;;5069338;28;21398;-49
2022/04/25 08:49:11;;;;;;;29.85;23.05;;;18.60;98.40;;;;;;5070045;28;20380;-49
2022/04/25 08:51:38;;;;;;;27.60;21.97;;;17.80;99.90;;;;;;5069782;28;20461;-49
2022/04/25 08:54:08;;;;;;;27.20;21.30;;;17.40;99.90;;;;;;5069925;28;20388;-49
2022/04/25 08:56:36;;;;;;;28.80;21.90;;;17.10;99.90;;;;;;5069430;28;20384;-49
2022/04/25 08:59:05;;;;;;;27.17;20.83;;;17.30;99.90;;;;;;5070139;28;20500;-49
2022/04/25 09:01:32;;;;;;;28.80;21.70;;;17.50;99.90;;;;;;5069400;28;20380;-49
2022/04/25 09:03:59;;;;;;;26.33;20.40;;;17.70;99.90;;;;;;5069881;28;20390;-49
2022/04/25 09:06:24;;;;;;;27.33;20.13;;;17.70;99.90;;;;;;5069314;28;20384;-50
2022/04/25 09:08:50;;;;;;;26.80;19.77;;;18.00;99.90;;;;;;5069792;28;20920;-49
2022/04/25 09:14:01;;;;;;;29.48;21.15;;;17.40;99.90;;;;;;5078695;28;20389;-49
2022/04/25 09:16:27;;;;;;;27.83;20.45;;;17.70;99.90;;;;;;5089425;28;20374;-50
2022/04/25 09:18:53;;;;;;;27.93;21.50;;;;;;;;;;5090025;28;20402;-50
2022/04/25 09:21:19;;;;;;;27.60;21.45;;;;;;;;;;5089194;28;20924;-52
2022/04/25 09:23:45;;;;;;;25.60;20.40;;;;;;;;;;5089562;28;20381;-50
2022/04/25 09:26:12;;;;;;;27.83;25.02;;;;;;;;;;5089819;28;20371;-49
2022/04/25 09:28:47;;;;;;;23.97;21.37;;;;;;;;;;5089299;28;20377;-50
2022/04/25 09:31:18;;;;;;;25.55;22.85;;;26.60;99.90;;;;;;5089991;28;20381;-50
2022/04/25 09:33:44;;;;;;;31.05;28.15;;;26.40;96.00;;;;;;5089147;28;20736;-50
2022/04/25 09:36:10;;;;;;;31.50;28.50;;;24.90;93.30;;;;;;5089583;28;20378;-50
2022/04/25 09:38:38;;;;;;;26.08;23.15;;;24.40;89.80;;;;;;5088692;28;20434;-49
2022/04/25 09:41:14;;;;;;;22.83;20.33;;;23.80;92.00;;;;;;5089126;28;20855;-49
2022/04/25 09:43:42;;;;;;;24.15;21.55;;;22.60;90.00;;;;;;5089012;28;20380;-49
2022/04/25 09:46:10;;;;;;;25.02;21.75;;;21.30;91.10;;;;;;5089873;28;20378;-49
2022/04/25 09:48:38;;;;;;;22.15;19.80;;;21.20;92.70;;;;;;5071226;28;20382;-49
2022/04/25 09:51:08;;;;;;;22.15;18.83;;;21.50;92.20;;;;;;5089645;28;20424;-49
2022/04/25 09:53:52;;;;;;;23.27;19.33;;;20.50;81.60;;;;;;5089046;28;20439;-49
2022/04/25 09:56:20;;;;;;;24.33;20.20;;;19.80;85.20;;;;;;5089698;28;20390;-52
2022/04/25 09:59:01;;;;;;;24.55;20.30;;;19.70;86.80;;;;;;5089604;28;20406;-49
2022/04/25 10:01:29;;;;;;;22.83;18.85;;;19.20;90.10;;;;;;5070364;28;20382;-49
2022/04/25 10:03:55;;;;;;;21.87;18.10;;;18.60;90.80;;;;;;5089680;28;20396;-49
2022/04/25 10:06:22;;;;;;;24.23;18.02;;;18.40;92.00;;;;;;5089050;28;20931;-51
2022/04/25 10:08:50;;;;;;;23.13;18.40;;;18.30;91.90;;;;;;5089915;28;20386;-49
2022/04/25 10:11:18;;;;;;;21.75;17.65;;;18.00;92.50;;;;;;5089372;28;20386;-49
2022/04/25 10:13:46;;;;;;;23.42;18.15;;;17.90;92.10;;;;;;5088720;28;20378;-50
2022/04/25 10:16:12;;;;;;;23.38;18.33;;;17.80;91.90;;;;;;5089856;28;20375;-49
2022/04/25 10:18:39;;;;;;;20.90;16.97;;;17.60;92.70;;;;;;5088655;28;20505;-49
2022/04/25 10:21:07;;;;;;;21.75;16.45;;;18.40;93.30;;;;;;5089491;28;20397;-50
2022/04/25 10:23:34;;;;;;;20.73;16.40;;;19.50;91.90;;;;;;5088707;28;20420;-50
2022/04/25 10:26:01;;;;;;;22.40;17.13;;;20.60;94.30;;;;;;5089318;28;20381;-50
2022/04/25 10:28:33;;;;;;;22.00;17.92;;;20.70;92.20;;;;;;5070745;28;20422;-49
2022/04/25 10:31:02;;;;;;;24.60;19.33;;;21.10;91.90;;;;;;5089374;28;20394;-49
2022/04/25 10:33:49;;;;;;;21.73;18.13;;;20.30;92.40;;;;;;5088436;28;20382;-49
2022/04/25 10:36:36;;;;;;;22.40;18.42;;;19.80;92.70;;;;;;5089445;28;20382;-49
2022/04/25 10:39:19;;;;;;;22.08;18.35;;;19.60;93.40;;;;;;5089272;28;20444;-49
2022/04/25 10:44:31;;;;;;;24.50;18.87;;;19.20;93.90;;;;;;5088253;28;20465;-49
2022/04/25 10:47:06;;;;;;;22.80;18.37;;;18.60;94.90;;;;;;5089663;28;20393;-49
2022/04/25 10:49:33;;;;;;;22.85;17.90;;;18.30;95.00;;;;;;5070453;28;20459;-49
2022/04/25 10:51:59;;;;;;;22.00;18.43;;;18.10;95.70;;;;;;5091680;28;20394;-49
2022/04/25 10:54:28;;;;;;;22.42;17.83;;;17.70;95.90;;;;;;5092063;28;20370;-49
2022/04/25 10:57:18;;;;;;;23.60;17.60;;;17.60;96.50;;;;;;5092740;28;20386;-49
2022/04/25 10:59:44;;;;;;;21.77;16.47;;;17.50;96.50;;;;;;5078847;28;20495;-49
2022/04/25 11:02:23;;;;;;;23.25;16.73;;;17.40;96.10;;;;;;5092430;28;20863;-49
2022/04/25 11:05:10;;;;;;;23.10;17.40;;;17.00;97.20;;;;;;5092587;28;20397;-49
2022/04/25 11:07:37;;;;;;;19.35;14.80;;;17.10;97.70;;;;;;5091565;28;20826;-49
2022/04/25 11:10:09;;;;;;;21.05;15.85;;;17.10;96.20;;;;;;5092473;28;20374;-49
2022/04/25 11:12:57;;;;;;;22.83;16.80;;;17.10;96.80;;;;;;5073553;28;20394;-49
2022/04/25 11:15:58;;;;;;;22.57;17.47;;;17.10;98.50;;;;;;5071092;28;20395;-52
2022/04/25 11:18:28;;;;;;;23.38;17.52;;;17.30;98.70;;;;;;5018112;28;20420;-50
2022/04/25 11:20:59;;;;;;;22.05;17.38;;;17.00;99.90;;;;;;5053626;28;20765;-50
2022/04/25 11:23:31;;;;;;;21.90;16.30;;;17.00;99.90;;;;;;5070955;28;20408;-50
2022/04/25 11:25:59;;;;;;;23.50;16.70;;;17.20;99.90;;;;;;5071686;28;20424;-50
2022/04/25 11:28:26;;;;;;;24.95;17.38;;;17.10;99.90;;;;;;5071079;28;20390;-50
2022/04/25 11:31:13;;;;;;;21.60;16.10;;;16.90;99.90;;;;;;5071981;28;20384;-50
2022/04/25 11:33:43;;;;;;;23.17;17.45;;;16.60;99.90;;;;;;5071133;28;20423;-49
2022/04/25 11:36:11;;;;;;;22.67;16.58;;;16.70;99.90;;;;;;5071791;28;20383;-50
2022/04/25 11:41:26;;;;;;;21.13;16.35;;;17.20;99.90;;;;;;5071245;28;20466;-49
2022/04/25 11:43:52;;;;;;;23.33;17.17;;;17.40;99.90;;;;;;5071462;28;20391;-50
2022/04/25 11:46:17;;;;;;;22.70;16.40;;;17.20;99.90;;;;;;5071946;28;20854;-49
2022/04/25 11:48:51;;;;;;;21.50;16.30;;;16.90;99.90;;;;;;5071240;28;20460;-50
2022/04/25 11:51:28;;;;;;;22.00;16.15;;;16.80;99.90;;;;;;5053568;28;20780;-49
2022/04/25 11:53:55;;;;;;;23.45;16.05;;;16.40;99.90;;;;;;5071453;28;20900;-50
2022/04/25 11:56:23;;;;;;;21.23;15.77;;;16.40;99.90;;;;;;5071330;28;20376;-52
2022/04/25 11:58:50;;;;;;;23.75;16.70;;;16.30;99.90;;;;;;5071269;28;20415;-49
2022/04/25 12:01:38;;;;;;;23.50;16.75;;;15.80;99.90;;;;;;5071383;28;20382;-49
2022/04/25 12:04:15;;;;;;;25.25;16.58;;;16.20;99.90;;;;;;5070503;28;20383;-50
2022/04/25 12:06:48;;;;;;;23.17;17.00;;;16.20;99.90;;;;;;5070351;28;20584;-49
2022/04/25 12:17:51;;;;;;;26.88;17.30;;;16.80;99.90;;;;;;5070836;28;20891;-50
2022/04/25 12:20:20;;;;;;;23.20;17.17;;;16.60;99.90;;;;;;5070813;28;20434;-51
2022/04/25 12:22:57;;;;;;;23.53;16.13;;;16.50;99.90;;;;;;5070815;28;20427;-51
2022/04/25 12:25:25;;;;;;;26.80;18.40;;;16.20;99.90;;;;;;5070289;28;20376;-53
2022/04/25 12:28:06;;;;;;;23.20;17.00;;;16.10;99.90;;;;;;5070302;28;20378;-50
2022/04/25 12:30:45;;;;;;;25.52;17.77;;;16.30;99.90;;;;;;5052117;28;20395;-50
2022/04/25 12:33:12;;;;;;;23.42;16.55;;;16.70;99.90;;;;;;5053641;28;20745;-50
2022/04/25 12:35:39;;;;;;;25.20;17.85;;;16.80;99.90;;;;;;5070265;28;20396;-51
2022/04/25 12:38:06;;;;;;;25.58;17.60;;;16.90;99.90;;;;;;5070424;28;20415;-51
2022/04/25 12:40:33;;;;;;;25.50;16.85;;;16.80;99.90;;;;;;5069368;28;20792;-50
2022/04/25 12:42:59;;;;;;;22.40;16.10;;;16.50;99.90;;;;;;5070299;28;20880;-50
2022/04/25 12:45:25;;;;;;;25.27;16.40;;;16.30;99.90;;;;;;5069411;28;20368;-51
2022/04/25 12:47:56;;;;;;;21.85;16.08;;;15.80;99.90;;;;;;5052654;28;20388;-51
2022/04/25 12:50:42;;;;;;;23.20;16.25;;;15.60;99.90;;;;;;5070141;28;20531;-53
2022/04/25 12:53:09;;;;;;;28.48;18.38;;;15.60;99.90;;;;;;5070800;28;20478;-51
2022/04/25 12:55:46;;;;;;;26.42;18.80;;;15.70;99.90;;;;;;5069469;28;20463;-50
2022/04/25 12:58:11;;;;;;;26.30;17.50;;;16.00;99.90;;;;;;5052091;28;20411;-51
2022/04/25 13:00:44;;;;;;;25.58;17.70;;;15.90;99.90;;;;;;5069086;28;20467;-50
2022/04/25 13:03:11;;;;;;;23.77;16.48;;;15.90;99.90;;;;;;5070336;28;20413;-51
2022/04/25 13:05:38;;;;;;;25.13;17.90;;;16.00;99.90;;;;;;5069386;28;20384;-51
2022/04/25 13:08:04;;;;;;;25.52;17.88;;;16.20;99.90;;;;;;5070034;28;20475;-50
2022/04/25 13:10:30;;;;;;;25.17;16.88;;;16.30;99.90;;;;;;5069198;28;20440;-51